createdAt,value
2019-01-14T00:01:33.686Z,1.87
2019-01-14T00:04:02.784Z,2.00
2019-01-14T00:06:31.883Z,2.63
2019-01-14T00:09:01.090Z,1.70
2019-01-14T00:11:30.213Z,2.10
2019-01-14T00:13:59.299Z,2.37
2019-01-14T00:16:28.496Z,1.93
2019-01-14T00:18:57.595Z,1.40
2019-01-14T00:21:26.695Z,1.83
2019-01-14T00:23:55.979Z,2.20
2019-01-14T00:26:25.098Z,1.90
2019-01-14T00:28:54.226Z,2.03
2019-01-14T00:31:23.345Z,2.37
2019-01-14T00:33:53.359Z,2.30
2019-01-14T00:36:22.488Z,1.90
2019-01-14T00:38:51.557Z,1.77
2019-01-14T00:41:20.682Z,2.17
2019-01-14T00:43:49.767Z,2.37
2019-01-14T00:46:18.972Z,2.10
2019-01-14T00:48:48.084Z,1.37
2019-01-14T00:51:17.182Z,2.03
2019-01-14T00:53:46.321Z,2.20
2019-01-14T00:56:15.415Z,2.00
2019-01-14T00:58:44.429Z,1.90
2019-01-14T01:01:13.522Z,2.13
2019-01-14T01:03:42.657Z,2.10
2019-01-14T01:06:11.776Z,1.87
2019-01-14T01:08:40.972Z,2.13
2019-01-14T01:11:10.115Z,2.03
2019-01-14T01:13:39.239Z,1.70
2019-01-14T01:16:08.513Z,2.40
2019-01-14T01:18:37.602Z,2.30
2019-01-14T01:21:06.698Z,1.93
2019-01-14T01:23:35.812Z,2.07
2019-01-14T01:26:04.949Z,1.83
2019-01-14T01:28:34.067Z,1.90
2019-01-14T01:31:03.163Z,2.40
2019-01-14T01:33:32.299Z,2.00
2019-01-14T01:36:01.396Z,1.57
2019-01-14T01:38:30.477Z,1.80
2019-01-14T01:40:59.593Z,1.80
2019-01-14T01:43:28.673Z,2.33
2019-01-14T01:45:57.763Z,2.10
2019-01-14T01:48:26.840Z,2.07
2019-01-14T01:50:55.917Z,1.97
2019-01-14T01:53:25.042Z,1.70
2019-01-14T01:55:54.162Z,1.77
2019-01-14T01:58:23.288Z,1.13
2019-01-14T02:00:52.403Z,2.00
2019-01-14T02:03:21.512Z,1.97
2019-01-14T02:05:50.878Z,2.47
2019-01-14T02:08:19.992Z,2.00
2019-01-14T02:10:49.062Z,1.90
2019-01-14T02:13:18.214Z,2.03
2019-01-14T02:15:47.318Z,2.23
2019-01-14T02:18:16.388Z,2.03
2019-01-14T02:20:45.490Z,1.93
2019-01-14T02:23:14.581Z,2.00
2019-01-14T02:25:43.718Z,2.40
2019-01-14T02:28:12.818Z,2.87
2019-01-14T02:30:41.949Z,2.67
2019-01-14T02:33:11.038Z,1.90
2019-01-14T02:35:40.137Z,2.47
2019-01-14T02:38:09.181Z,1.83
2019-01-14T02:40:38.296Z,2.37
2019-01-14T02:43:07.404Z,1.80
2019-01-14T02:45:36.508Z,2.40
2019-01-14T02:48:05.634Z,2.10
2019-01-14T02:50:34.753Z,2.20
2019-01-14T02:53:03.840Z,1.50
2019-01-14T02:55:32.986Z,2.40
2019-01-14T02:58:02.188Z,2.30
2019-01-14T03:00:31.308Z,2.30
2019-01-14T03:03:00.433Z,2.00
2019-01-14T03:05:29.528Z,1.93
2019-01-14T03:07:58.681Z,2.00
2019-01-14T03:10:27.792Z,2.10
2019-01-14T03:12:56.935Z,2.03
2019-01-14T03:15:26.070Z,2.03
2019-01-14T03:17:55.245Z,2.30
2019-01-14T03:20:24.362Z,2.57
2019-01-14T03:22:53.492Z,2.17
2019-01-14T03:25:22.579Z,2.50
2019-01-14T03:27:51.689Z,2.17
2019-01-14T03:30:20.790Z,2.13
2019-01-14T03:32:49.898Z,2.40
2019-01-14T03:35:19.085Z,2.47
2019-01-14T03:37:48.209Z,1.97
2019-01-14T03:40:18.212Z,2.17
2019-01-14T03:42:47.433Z,2.73
2019-01-14T03:45:16.551Z,2.80
2019-01-14T03:47:45.712Z,2.50
2019-01-14T03:50:17.183Z,2.80
2019-01-14T03:52:46.305Z,2.83
2019-01-14T03:55:15.369Z,3.17
2019-01-14T03:57:44.603Z,3.37
2019-01-14T04:00:16.307Z,3.07
2019-01-14T04:02:45.418Z,3.53
2019-01-14T04:05:14.496Z,3.00
2019-01-14T04:07:43.629Z,3.43
2019-01-14T04:10:14.606Z,2.77
2019-01-14T04:12:43.689Z,2.73
2019-01-14T04:15:14.382Z,3.73
2019-01-14T04:17:43.483Z,2.37
2019-01-14T04:20:13.848Z,2.53
2019-01-14T04:22:42.927Z,2.67
2019-01-14T04:25:12.057Z,2.47
2019-01-14T04:27:41.170Z,2.47
2019-01-14T04:30:13.501Z,3.60
2019-01-14T04:32:42.614Z,3.47
2019-01-14T04:35:11.743Z,3.10
2019-01-14T04:37:40.824Z,3.13
2019-01-14T04:40:10.252Z,3.13
2019-01-14T04:42:39.332Z,2.80
2019-01-14T04:45:09.593Z,3.30
2019-01-14T04:47:38.673Z,3.23
2019-01-14T04:50:09.401Z,2.80
2019-01-14T04:52:38.518Z,3.33
2019-01-14T04:55:07.684Z,4.00
2019-01-14T04:57:36.893Z,3.23
2019-01-14T05:00:09.743Z,2.70
2019-01-14T05:02:38.946Z,3.70
2019-01-14T05:05:08.066Z,3.30
2019-01-14T05:07:37.275Z,3.53
2019-01-14T05:10:06.822Z,3.67
2019-01-14T05:12:35.912Z,3.73
2019-01-14T05:15:05.444Z,3.80
2019-01-14T05:17:34.524Z,3.63
2019-01-14T05:20:03.783Z,3.73
2019-01-14T05:22:32.857Z,3.30
2019-01-14T05:25:01.963Z,3.63
2019-01-14T05:27:31.016Z,4.40
2019-01-14T05:30:00.174Z,4.27
2019-01-14T05:32:29.272Z,3.87
2019-01-14T05:34:58.381Z,3.90
2019-01-14T05:37:27.533Z,3.23
2019-01-14T05:39:56.611Z,3.53
2019-01-14T05:42:25.716Z,3.80
2019-01-14T05:44:54.829Z,3.50
2019-01-14T05:47:23.913Z,2.90
2019-01-14T05:49:53.029Z,4.80
2019-01-14T05:52:22.125Z,3.43
2019-01-14T05:54:51.239Z,3.87
2019-01-14T05:57:20.394Z,4.53
2019-01-14T05:59:49.482Z,3.80
2019-01-14T06:02:18.674Z,3.17
2019-01-14T06:04:47.827Z,3.57
2019-01-14T06:07:16.997Z,4.50
2019-01-14T06:09:46.110Z,3.17
2019-01-14T06:12:15.235Z,3.30
2019-01-14T06:14:44.345Z,3.07
2019-01-14T06:17:13.490Z,3.40
2019-01-14T06:19:42.677Z,3.40
2019-01-14T06:22:11.790Z,3.60
2019-01-14T06:24:41.291Z,3.90
2019-01-14T06:27:10.458Z,4.07
2019-01-14T06:29:39.548Z,3.03
2019-01-14T06:32:08.709Z,3.63
2019-01-14T06:34:37.847Z,3.73
2019-01-14T06:37:07.084Z,3.97
2019-01-14T06:39:36.300Z,3.60
2019-01-14T06:45:24.679Z,3.40
2019-01-14T06:47:53.917Z,3.77
2019-01-14T06:50:34.287Z,3.10
2019-01-14T06:53:03.552Z,3.93
2019-01-14T06:55:32.693Z,3.30
2019-01-14T06:58:01.965Z,3.10
2019-01-14T07:00:31.141Z,3.73
2019-01-14T07:03:00.475Z,3.00
2019-01-14T07:05:29.760Z,3.00
2019-01-14T07:07:59.747Z,3.07
2019-01-14T07:10:30.622Z,3.83
2019-01-14T07:12:59.807Z,3.47
2019-01-14T07:15:28.944Z,3.57
2019-01-14T07:17:58.075Z,3.50
2019-01-14T07:20:27.325Z,3.57
2019-01-14T07:22:56.503Z,3.73
2019-01-14T07:25:25.738Z,3.53
2019-01-14T07:27:54.963Z,3.07
2019-01-14T07:30:24.238Z,3.23
2019-01-14T07:32:53.445Z,3.07
2019-01-14T07:35:22.633Z,3.70
2019-01-14T07:37:51.793Z,3.33
2019-01-14T07:40:20.962Z,3.30
2019-01-14T07:42:50.125Z,2.83
2019-01-14T07:45:19.458Z,2.60
2019-01-14T07:47:48.642Z,2.70
2019-01-14T07:50:18.132Z,3.37
2019-01-14T07:52:47.337Z,2.87
2019-01-14T07:55:16.530Z,2.70
2019-01-14T07:57:45.787Z,2.80
2019-01-14T08:00:20.557Z,2.57
2019-01-14T08:02:49.716Z,2.00
2019-01-14T08:05:18.849Z,3.03
2019-01-14T08:07:47.983Z,3.33
2019-01-14T08:10:17.219Z,2.60
2019-01-14T08:12:46.466Z,2.37
2019-01-14T08:15:17.216Z,1.87
2019-01-14T08:17:46.436Z,2.03
2019-01-14T08:20:15.603Z,2.70
2019-01-14T08:22:44.924Z,1.70
2019-01-14T08:25:14.174Z,2.90
2019-01-14T08:27:43.456Z,2.00
2019-01-14T08:30:17.902Z,2.53
2019-01-14T08:32:47.204Z,1.90
2019-01-14T08:35:16.448Z,2.10
2019-01-14T08:37:45.663Z,2.23
2019-01-14T08:40:15.778Z,1.97
2019-01-14T08:42:44.898Z,2.30
2019-01-14T08:45:14.041Z,1.70
2019-01-14T08:47:43.354Z,1.77
2019-01-14T08:50:15.035Z,1.87
2019-01-14T08:52:44.413Z,1.90
2019-01-14T08:55:13.552Z,1.50
2019-01-14T08:57:42.839Z,2.20
2019-01-14T09:00:14.616Z,1.43
2019-01-14T09:02:43.750Z,1.97
2019-01-14T09:05:12.998Z,2.00
2019-01-14T09:07:42.188Z,1.80
2019-01-14T09:10:14.230Z,2.17
2019-01-14T09:12:43.490Z,1.90
2019-01-14T09:15:13.545Z,1.97
2019-01-14T09:17:42.711Z,1.47
2019-01-14T09:20:18.296Z,1.77
2019-01-14T09:22:47.642Z,1.93
2019-01-14T09:25:16.889Z,1.70
2019-01-14T09:27:46.244Z,2.00
2019-01-14T09:30:47.314Z,2.23
2019-01-14T09:33:16.454Z,1.90
2019-01-14T09:35:45.638Z,1.90
2019-01-14T09:38:14.853Z,1.67
2019-01-14T09:40:44.059Z,1.80
2019-01-14T09:43:13.304Z,1.40
2019-01-14T09:45:42.595Z,1.50
2019-01-14T09:48:11.951Z,1.63
2019-01-14T09:50:41.171Z,1.40
2019-01-14T09:53:10.375Z,1.30
2019-01-14T09:55:39.569Z,1.67
2019-01-14T09:58:08.794Z,1.57
2019-01-14T10:00:38.026Z,1.93
2019-01-14T10:03:07.408Z,1.80
2019-01-14T10:05:36.626Z,1.80
2019-01-14T10:08:05.823Z,1.87
2019-01-14T10:10:35.114Z,2.00
2019-01-14T10:13:04.390Z,1.70
2019-01-14T10:15:33.911Z,1.87
2019-01-14T10:18:27.623Z,1.67
2019-01-14T10:20:56.839Z,1.60
2019-01-14T10:23:26.109Z,1.30
2019-01-14T10:25:55.454Z,2.00
2019-01-14T10:28:24.701Z,1.40
2019-01-14T10:31:01.124Z,1.30
2019-01-14T10:33:30.465Z,1.50
2019-01-14T10:35:59.623Z,2.00
2019-01-14T10:38:28.777Z,2.07
2019-01-14T10:40:57.974Z,1.80
2019-01-14T10:43:28.719Z,1.47
2019-01-14T10:45:57.819Z,2.13
2019-01-14T10:48:27.056Z,1.70
2019-01-14T10:50:56.213Z,2.27
2019-01-14T10:53:25.373Z,1.60
2019-01-14T10:55:54.472Z,2.20
2019-01-14T10:58:23.618Z,2.00
2019-01-14T11:00:52.905Z,1.90
2019-01-14T11:03:22.041Z,2.23
2019-01-14T11:05:51.351Z,1.90
2019-01-14T11:08:20.472Z,1.80
2019-01-14T11:10:49.838Z,1.70
2019-01-14T11:13:19.035Z,1.80
2019-01-14T11:15:48.419Z,1.70
2019-01-14T11:18:17.562Z,1.90
2019-01-14T11:20:49.476Z,1.40
2019-01-14T11:23:18.793Z,1.83
2019-01-14T11:25:48.121Z,1.87
2019-01-14T11:28:18.309Z,1.73
2019-01-14T11:30:47.550Z,1.80
2019-01-14T11:33:16.873Z,1.50
2019-01-14T11:35:46.224Z,1.73
2019-01-14T11:38:41.840Z,1.40
2019-01-14T11:41:11.305Z,1.70
2019-01-14T11:43:40.583Z,1.60
2019-01-14T11:46:09.878Z,1.60
2019-01-14T11:48:39.213Z,1.43
2019-01-14T11:51:08.640Z,1.63
2019-01-14T11:53:37.902Z,1.20
2019-01-14T11:56:07.220Z,1.87
2019-01-14T11:58:36.519Z,1.70
2019-01-14T12:01:05.691Z,1.60
2019-01-14T12:03:34.927Z,1.50
2019-01-14T12:06:04.200Z,1.50
2019-01-14T12:08:33.461Z,1.40
2019-01-14T12:11:02.956Z,1.43
2019-01-14T12:13:32.249Z,1.77
2019-01-14T12:16:01.405Z,1.80
2019-01-14T12:18:30.685Z,1.60
2019-01-14T12:20:59.856Z,1.80
2019-01-14T12:23:29.040Z,1.60
2019-01-14T12:25:58.436Z,2.00
2019-01-14T12:28:27.755Z,1.40
2019-01-14T12:30:57.128Z,1.40
2019-01-14T12:33:26.481Z,1.70
2019-01-14T12:35:56.872Z,1.27
2019-01-14T12:38:26.158Z,1.47
2019-01-14T12:40:55.439Z,1.70
2019-01-14T12:43:25.203Z,1.60
2019-01-14T12:45:54.634Z,2.13
2019-01-14T12:48:23.967Z,1.80
2019-01-14T12:50:53.165Z,2.80
2019-01-14T12:53:22.315Z,1.50
2019-01-14T12:55:51.541Z,1.80
2019-01-14T12:58:20.694Z,1.40
2019-01-14T13:00:56.129Z,1.70
2019-01-14T13:03:25.497Z,1.70
2019-01-14T13:05:55.319Z,1.50
2019-01-14T13:08:25.846Z,1.07
2019-01-14T13:10:56.254Z,1.10
2019-01-14T13:13:25.517Z,1.43
2019-01-14T13:15:54.932Z,1.70
2019-01-14T13:18:24.438Z,1.50
2019-01-14T13:20:53.728Z,1.43
2019-01-14T13:23:23.020Z,1.20
2019-01-14T13:25:52.342Z,1.40
2019-01-14T13:28:21.690Z,0.87
2019-01-14T13:30:52.023Z,1.50
2019-01-14T13:33:21.226Z,1.67
2019-01-14T13:35:50.596Z,1.60
2019-01-14T13:38:23.827Z,1.60
2019-01-14T13:40:54.739Z,1.60
2019-01-14T13:43:24.106Z,1.80
2019-01-14T13:45:53.353Z,1.67
2019-01-14T13:48:22.630Z,2.73
2019-01-14T13:50:51.872Z,1.97
2019-01-14T13:53:21.221Z,2.10
2019-01-14T13:55:50.631Z,1.90
2019-01-14T13:58:19.819Z,2.03
2019-01-14T14:00:49.107Z,2.33
2019-01-14T14:03:18.452Z,2.53
2019-01-14T14:05:47.829Z,1.87
2019-01-14T14:08:17.584Z,2.40
2019-01-14T14:10:46.833Z,1.90
2019-01-14T14:13:16.215Z,2.10
2019-01-14T14:15:45.529Z,2.00
2019-01-14T14:18:15.851Z,2.30
2019-01-14T14:20:45.106Z,1.93
2019-01-14T14:23:15.295Z,1.80
2019-01-14T14:25:44.604Z,2.23
2019-01-14T14:28:14.044Z,2.60
2019-01-14T14:30:43.474Z,2.23
2019-01-14T14:33:12.953Z,1.83
2019-01-14T14:35:42.399Z,2.30
2019-01-14T14:38:11.749Z,2.37
2019-01-14T14:40:41.147Z,2.47
2019-01-14T14:43:10.397Z,3.10
2019-01-14T14:45:39.987Z,2.43
2019-01-14T14:48:09.297Z,2.43
2019-01-14T14:50:38.436Z,2.83
2019-01-14T14:53:07.579Z,2.17
2019-01-14T14:55:36.715Z,2.87
2019-01-14T14:58:05.951Z,2.53
2019-01-14T15:00:35.094Z,2.67
2019-01-14T15:03:04.440Z,2.70
2019-01-14T15:05:33.695Z,2.67
2019-01-14T15:08:02.849Z,2.30
2019-01-14T15:10:32.075Z,2.20
2019-01-14T15:13:01.277Z,2.83
2019-01-14T15:15:30.430Z,2.67
2019-01-14T15:17:59.560Z,2.40
2019-01-14T15:20:28.700Z,2.20
2019-01-14T15:22:57.802Z,2.63
2019-01-14T15:25:26.934Z,2.13
2019-01-14T15:27:56.096Z,2.27
2019-01-14T15:30:27.427Z,2.83
2019-01-14T15:32:56.759Z,3.00
2019-01-14T15:35:26.020Z,2.90
2019-01-14T15:37:55.226Z,2.70
2019-01-14T15:40:24.762Z,2.90
2019-01-14T15:42:53.936Z,3.10
2019-01-14T15:45:24.439Z,2.70
2019-01-14T15:47:53.591Z,3.20
2019-01-14T15:50:22.748Z,2.90
2019-01-14T15:52:51.859Z,2.73
2019-01-14T15:55:23.341Z,2.60
2019-01-14T15:57:52.586Z,2.50
2019-01-14T16:00:21.754Z,2.67
2019-01-14T16:02:50.862Z,2.30
2019-01-14T16:05:20.045Z,3.10
2019-01-14T16:07:49.212Z,2.53
2019-01-14T16:10:20.303Z,3.10
2019-01-14T16:12:49.457Z,3.20
2019-01-14T16:15:18.750Z,3.30
2019-01-14T16:17:47.925Z,2.73
2019-01-14T16:20:18.789Z,2.90
2019-01-14T16:22:48.269Z,2.80
2019-01-14T16:25:17.363Z,2.57
2019-01-14T16:27:46.558Z,2.73
2019-01-14T16:30:26.338Z,3.33
2019-01-14T16:32:55.510Z,3.30
2019-01-14T16:35:24.700Z,2.70
2019-01-14T16:37:54.284Z,3.00
2019-01-14T16:40:23.413Z,2.90
2019-01-14T16:42:53.978Z,3.33
2019-01-14T16:45:27.016Z,3.53
2019-01-14T16:47:56.338Z,2.87
2019-01-14T16:50:25.528Z,2.70
2019-01-14T16:52:54.653Z,2.97
2019-01-14T16:55:37.685Z,2.93
2019-01-14T16:58:06.827Z,3.40
2019-01-14T17:00:36.045Z,3.23
2019-01-14T17:03:05.204Z,3.50
2019-01-14T17:05:35.618Z,3.13
2019-01-14T17:08:05.489Z,3.47
2019-01-14T17:10:34.729Z,3.13
2019-01-14T17:13:03.909Z,3.20
2019-01-14T17:15:33.098Z,3.03
2019-01-14T17:18:02.235Z,3.20
2019-01-14T17:20:33.074Z,2.90
2019-01-14T17:23:02.325Z,3.20
2019-01-14T17:25:31.528Z,3.60
2019-01-14T17:28:00.729Z,2.87
2019-01-14T17:30:29.945Z,2.43
2019-01-14T17:32:59.131Z,2.80
2019-01-14T17:35:28.308Z,2.90
2019-01-14T17:37:57.478Z,3.00
2019-01-14T17:40:32.451Z,3.03
2019-01-14T17:42:57.465Z,2.87
2019-01-14T17:45:26.886Z,2.80
2019-01-14T17:47:56.066Z,2.73
2019-01-14T17:50:25.271Z,2.53
2019-01-14T17:52:54.510Z,2.67
2019-01-14T17:55:23.630Z,2.93
2019-01-14T17:57:52.806Z,2.87
2019-01-14T18:00:24.116Z,3.20
2019-01-14T18:02:53.264Z,2.73
2019-01-14T18:05:22.442Z,2.90
2019-01-14T18:07:51.610Z,3.03
2019-01-14T18:10:21.339Z,3.07
2019-01-14T18:12:50.668Z,2.97
2019-01-14T18:15:19.874Z,3.63
2019-01-14T18:17:49.135Z,3.03
2019-01-14T18:20:19.749Z,2.87
2019-01-14T18:22:48.969Z,3.93
2019-01-14T18:25:18.061Z,2.97
2019-01-14T18:27:47.261Z,3.23
2019-01-14T18:30:18.379Z,3.00
2019-01-14T18:32:47.677Z,2.60
2019-01-14T18:35:17.197Z,2.90
2019-01-14T18:37:46.787Z,2.70
2019-01-14T18:40:18.803Z,3.13
2019-01-14T18:42:48.135Z,3.03
2019-01-14T18:45:18.844Z,3.63
2019-01-14T18:47:50.324Z,2.73
2019-01-14T18:50:21.459Z,2.70
2019-01-14T18:52:50.814Z,2.60
2019-01-14T18:55:20.099Z,2.70
2019-01-14T18:57:49.673Z,2.43
2019-01-14T19:00:20.889Z,2.33
2019-01-14T19:02:51.035Z,2.73
2019-01-14T19:05:20.465Z,3.50
2019-01-14T19:07:49.841Z,3.17
2019-01-14T19:10:19.103Z,3.00
2019-01-14T19:12:48.493Z,3.13
2019-01-14T19:15:19.366Z,3.13
2019-01-14T19:17:48.723Z,2.97
2019-01-14T19:20:28.969Z,2.47
2019-01-14T19:22:58.333Z,2.73
2019-01-14T19:25:27.638Z,2.57
2019-01-14T19:27:57.016Z,2.83
2019-01-14T19:30:26.305Z,2.90
2019-01-14T19:32:55.648Z,3.53
2019-01-14T19:35:24.979Z,2.67
2019-01-14T19:37:54.182Z,2.60
2019-01-14T19:40:23.504Z,2.73
2019-01-14T19:42:52.838Z,3.17
2019-01-14T19:45:22.348Z,3.37
2019-01-14T19:47:51.739Z,2.77
2019-01-14T19:50:22.962Z,2.70
2019-01-14T19:52:52.379Z,2.73
2019-01-14T19:55:22.409Z,2.80
2019-01-14T19:57:51.715Z,3.07
2019-01-14T20:00:23.499Z,2.70
2019-01-14T20:02:52.871Z,2.50
2019-01-14T20:05:22.091Z,2.63
2019-01-14T20:07:52.049Z,2.53
2019-01-14T20:10:21.313Z,2.30
2019-01-14T20:12:50.759Z,2.50
2019-01-14T20:15:20.336Z,2.53
2019-01-14T20:17:49.800Z,2.67
2019-01-14T20:20:19.194Z,2.67
2019-01-14T20:22:50.777Z,2.90
2019-01-14T20:25:20.083Z,2.57
2019-01-14T20:27:49.484Z,3.30
2019-01-14T20:30:20.772Z,2.20
2019-01-14T20:32:50.186Z,2.27
2019-01-14T20:35:19.696Z,2.30
2019-01-14T20:37:49.068Z,2.50
2019-01-14T20:40:20.758Z,2.37
2019-01-14T20:42:50.131Z,2.50
2019-01-14T20:45:21.479Z,2.23
2019-01-14T20:47:50.749Z,2.87
2019-01-14T20:50:20.579Z,2.83
2019-01-14T20:52:49.977Z,3.13
2019-01-14T20:55:19.180Z,3.13
2019-01-14T20:57:49.494Z,2.60
2019-01-14T21:00:24.463Z,2.23
2019-01-14T21:02:53.783Z,3.30
2019-01-14T21:05:23.862Z,3.10
2019-01-14T21:07:53.092Z,2.43
2019-01-14T21:10:22.356Z,2.80
2019-01-14T21:12:53.066Z,3.27
2019-01-14T21:15:22.212Z,2.60
2019-01-14T21:17:51.402Z,2.90
2019-01-14T21:20:22.651Z,3.17
2019-01-14T21:22:52.117Z,3.20
2019-01-14T21:25:21.279Z,2.70
2019-01-14T21:27:50.494Z,2.70
2019-01-14T21:30:21.709Z,3.13
2019-01-14T21:32:50.928Z,2.40
2019-01-14T21:35:20.153Z,2.60
2019-01-14T21:37:50.412Z,2.70
2019-01-14T21:40:19.595Z,2.37
2019-01-14T21:42:48.794Z,2.83
2019-01-14T21:45:17.963Z,2.60
2019-01-14T21:47:47.229Z,2.50
2019-01-14T21:50:17.745Z,3.50
2019-01-14T21:52:46.973Z,2.80
2019-01-14T21:55:18.262Z,3.23
2019-01-14T21:57:47.597Z,3.70
2019-01-14T22:00:18.777Z,3.13
2019-01-14T22:02:48.050Z,3.30
2019-01-14T22:05:17.263Z,2.23
2019-01-14T22:07:46.538Z,2.97
2019-01-14T22:10:17.883Z,2.57
2019-01-14T22:12:47.066Z,3.13
2019-01-14T22:15:16.500Z,2.47
2019-01-14T22:17:46.306Z,2.30
2019-01-14T22:20:17.980Z,2.37
2019-01-14T22:22:47.203Z,2.47
2019-01-14T22:25:16.358Z,2.77
2019-01-14T22:27:45.757Z,2.80
2019-01-14T22:30:17.548Z,2.07
2019-01-14T22:32:46.754Z,2.90
2019-01-14T22:35:15.974Z,2.17
2019-01-14T22:37:45.123Z,2.50
2019-01-14T22:40:14.358Z,2.27
2019-01-14T22:42:43.524Z,2.73
2019-01-14T22:45:12.819Z,2.30
2019-01-14T22:47:41.949Z,2.20
2019-01-14T22:50:13.270Z,2.40
2019-01-14T22:52:42.428Z,2.67
2019-01-14T22:55:11.632Z,2.23
2019-01-14T22:57:40.836Z,2.37
2019-01-14T23:00:27.773Z,2.10
2019-01-14T23:02:56.945Z,2.43
2019-01-14T23:05:26.051Z,2.17
2019-01-14T23:07:55.206Z,2.10
2019-01-14T23:10:24.410Z,2.10
2019-01-14T23:12:53.571Z,2.27
2019-01-14T23:15:22.670Z,2.33
2019-01-14T23:17:51.954Z,2.50
2019-01-14T23:20:21.101Z,2.00
2019-01-14T23:22:50.315Z,2.87
2019-01-14T23:25:19.473Z,2.10
2019-01-14T23:27:48.610Z,2.40
2019-01-14T23:30:17.745Z,2.57
2019-01-14T23:32:46.885Z,2.60
2019-01-14T23:35:16.024Z,2.30
2019-01-14T23:37:45.361Z,2.30
2019-01-14T23:40:14.508Z,2.10
2019-01-14T23:42:43.769Z,2.33
2019-01-14T23:45:12.947Z,2.20
2019-01-14T23:47:42.131Z,2.70
2019-01-14T23:50:11.277Z,2.60
2019-01-14T23:52:40.409Z,2.53
2019-01-14T23:55:09.516Z,3.40
2019-01-14T23:57:38.638Z,2.43
